KEGE/EGE METAR and TAF weather

Enter ICAO airport designator
Station Type Date Time Source
KEGE METAR 2020/07/10 19:56 UTC NOAA

KEGE 101956Z 28011G17KT 250V310 10SM CLR 32/M06 A3030 RMK AO2 SLP188 T03171061 PNO $


Station Type Date Time Source
KEGE Decoded METAR 2020/07/10 19:56 UTC NOAA

Eagle County Regional, CO, United States (KEGE) 39-39N 106-55W
Jul 10, 2020 - 03:56 PM EDT / 2020.07.10 1956 UTC
Wind: from the W (280 degrees) at 13 MPH (11 KT) gusting to 20 MPH (17 KT) (direction variable):0
Visibility: 10 mile(s):0
Sky conditions: clear
Temperature: 89.1 F (31.7 C)
Dew Point: 21.0 F (-6.1 C)
Relative Humidity: 8%
Pressure (altimeter): 30.3 in. Hg (1026 hPa)
ob: KEGE 101956Z 28011G17KT 250V310 10SM CLR 32/M06 A3030 RMK AO2 SLP188 T03171061 PNO
cycle: 20

Station Type Date Time Source
KEGE TAF 2020/07/10 18:34 UTC NOAA

TAF KEGE 101732Z 1018/1118 25007KT P6SM SKC
FM101900 25011G19KT P6SM SKC
FM110200 22005KT P6SM FEW250
FM111200 VRB04KT P6SM SKC

Example: see airport list